sensor_id;sensor_type;location;lat;lon;timestamp;temperature;humidity
3998;DHT22;61314;53.444;9.902;2023-02-23T00:00:29;7.50;99.90
3998;DHT22;61314;53.444;9.902;2023-02-23T00:02:59;7.50;99.90
3998;DHT22;61314;53.444;9.902;2023-02-23T00:05:29;7.50;99.90
3998;DHT22;61314;53.444;9.902;2023-02-23T00:07:56;7.50;99.90
3998;DHT22;61314;53.444;9.902;2023-02-23T00:10:23;7.40;99.90
3998;DHT22;61314;53.444;9.902;2023-02-23T00:12:57;7.40;99.90
3998;DHT22;61314;53.444;9.902;2023-02-23T00:15:27;7.40;99.90
3998;DHT22;61314;53.444;9.902;2023-02-23T00:17:57;7.40;99.90
3998;DHT22;61314;53.444;9.902;2023-02-23T00:20:25;7.40;99.90
3998;DHT22;61314;53.444;9.902;2023-02-23T00:22:54;7.40;99.90
3998;DHT22;61314;53.444;9.902;2023-02-23T00:25:22;7.40;99.90
3998;DHT22;61314;53.444;9.902;2023-02-23T00:27:50;7.30;99.90
3998;DHT22;61314;53.444;9.902;2023-02-23T00:30:18;7.30;99.90
3998;DHT22;61314;53.444;9.902;2023-02-23T00:32:45;7.30;99.90
3998;DHT22;61314;53.444;9.902;2023-02-23T00:35:12;7.30;99.90
3998;DHT22;61314;53.444;9.902;2023-02-23T00:37:47;7.30;99.90
3998;DHT22;61314;53.444;9.902;2023-02-23T00:40:15;7.30;99.90
3998;DHT22;61314;53.444;9.902;2023-02-23T00:42:43;7.30;99.90
3998;DHT22;61314;53.444;9.902;2023-02-23T00:45:12;7.20;99.90
3998;DHT22;61314;53.444;9.902;2023-02-23T00:47:41;7.20;99.90
3998;DHT22;61314;53.444;9.902;2023-02-23T00:50:13;7.20;99.90
3998;DHT22;61314;53.444;9.902;2023-02-23T00:52:41;7.20;99.90
3998;DHT22;61314;53.444;9.902;2023-02-23T00:55:13;7.20;99.90
3998;DHT22;61314;53.444;9.902;2023-02-23T00:57:40;7.20;99.90
3998;DHT22;61314;53.444;9.902;2023-02-23T01:00:10;7.20;99.90
3998;DHT22;61314;53.444;9.902;2023-02-23T01:02:46;7.20;99.90
3998;DHT22;61314;53.444;9.902;2023-02-23T01:05:14;7.20;99.90
3998;DHT22;61314;53.444;9.902;2023-02-23T01:07:42;7.20;99.90
3998;DHT22;61314;53.444;9.902;2023-02-23T01:10:12;7.10;99.90
3998;DHT22;61314;53.444;9.902;2023-02-23T01:12:49;7.10;99.90
3998;DHT22;61314;53.444;9.902;2023-02-23T01:15:17;7.10;99.90
3998;DHT22;61314;53.444;9.902;2023-02-23T01:17:44;7.10;99.90
3998;DHT22;61314;53.444;9.902;2023-02-23T01:20:15;7.10;99.90
3998;DHT22;61314;53.444;9.902;2023-02-23T01:22:47;7.10;99.90
3998;DHT22;61314;53.444;9.902;2023-02-23T01:25:16;7.10;99.90
3998;DHT22;61314;53.444;9.902;2023-02-23T01:27:43;7.00;99.90
3998;DHT22;61314;53.444;9.902;2023-02-23T01:30:12;7.00;99.90
3998;DHT22;61314;53.444;9.902;2023-02-23T01:32:40;7.00;99.90
3998;DHT22;61314;53.444;9.902;2023-02-23T01:35:08;7.00;99.90
3998;DHT22;61314;53.444;9.902;2023-02-23T01:37:36;7.00;99.90
3998;DHT22;61314;53.444;9.902;2023-02-23T01:40:09;7.00;99.90
3998;DHT22;61314;53.444;9.902;2023-02-23T01:42:45;7.00;99.90
3998;DHT22;61314;53.444;9.902;2023-02-23T01:45:20;7.00;99.90
3998;DHT22;61314;53.444;9.902;2023-02-23T01:47:49;7.00;99.90
3998;DHT22;61314;53.444;9.902;2023-02-23T01:50:17;6.90;99.90
3998;DHT22;61314;53.444;9.902;2023-02-23T01:52:47;6.90;99.90
3998;DHT22;61314;53.444;9.902;2023-02-23T01:55:16;6.90;99.90
3998;DHT22;61314;53.444;9.902;2023-02-23T01:57:53;6.90;99.90
3998;DHT22;61314;53.444;9.902;2023-02-23T02:00:22;6.90;99.90
3998;DHT22;61314;53.444;9.902;2023-02-23T02:02:51;6.90;99.90
3998;DHT22;61314;53.444;9.902;2023-02-23T02:05:19;6.90;99.90
3998;DHT22;61314;53.444;9.902;2023-02-23T02:07:48;6.90;99.90
3998;DHT22;61314;53.444;9.902;2023-02-23T02:10:15;6.80;99.90
3998;DHT22;61314;53.444;9.902;2023-02-23T02:12:51;7.00;99.90
3998;DHT22;61314;53.444;9.902;2023-02-23T02:15:20;6.80;99.90
3998;DHT22;61314;53.444;9.902;2023-02-23T02:18:03;6.80;99.90
3998;DHT22;61314;53.444;9.902;2023-02-23T02:20:55;6.80;99.90
3998;DHT22;61314;53.444;9.902;2023-02-23T02:23:41;6.80;99.90
3998;DHT22;61314;53.444;9.902;2023-02-23T02:26:25;6.80;99.90
3998;DHT22;61314;53.444;9.902;2023-02-23T02:29:47;6.70;99.90
3998;DHT22;61314;53.444;9.902;2023-02-23T02:32:26;6.80;99.90
3998;DHT22;61314;53.444;9.902;2023-02-23T02:38:10;6.80;99.90
3998;DHT22;61314;53.444;9.902;2023-02-23T02:41:01;6.70;99.90
3998;DHT22;61314;53.444;9.902;2023-02-23T02:43:39;6.70;99.90
3998;DHT22;61314;53.444;9.902;2023-02-23T02:46:29;6.80;99.90
3998;DHT22;61314;53.444;9.902;2023-02-23T02:49:07;6.80;99.90
3998;DHT22;61314;53.444;9.902;2023-02-23T02:54:22;6.80;99.90
3998;DHT22;61314;53.444;9.902;2023-02-23T02:56:52;6.80;99.90
3998;DHT22;61314;53.444;9.902;2023-02-23T02:59:23;6.80;99.90
3998;DHT22;61314;53.444;9.902;2023-02-23T03:02:17;6.70;99.90
3998;DHT22;61314;53.444;9.902;2023-02-23T03:05:17;6.70;99.90
3998;DHT22;61314;53.444;9.902;2023-02-23T03:08:10;6.70;99.90
3998;DHT22;61314;53.444;9.902;2023-02-23T03:11:14;6.70;99.90
3998;DHT22;61314;53.444;9.902;2023-02-23T03:17:31;6.70;99.90
3998;DHT22;61314;53.444;9.902;2023-02-23T03:20:36;6.70;99.90
3998;DHT22;61314;53.444;9.902;2023-02-23T03:23:48;6.70;99.90
3998;DHT22;61314;53.444;9.902;2023-02-23T03:35:25;6.60;99.90
3998;DHT22;61314;53.444;9.902;2023-02-23T03:41:06;6.60;99.90
3998;DHT22;61314;53.444;9.902;2023-02-23T03:44:01;6.60;99.90
3998;DHT22;61314;53.444;9.902;2023-02-23T03:46:47;6.60;99.90
3998;DHT22;61314;53.444;9.902;2023-02-23T03:49:36;6.50;99.90
3998;DHT22;61314;53.444;9.902;2023-02-23T03:52:30;6.50;99.90
3998;DHT22;61314;53.444;9.902;2023-02-23T03:55:22;6.50;99.90
3998;DHT22;61314;53.444;9.902;2023-02-23T03:58:12;6.70;99.90
3998;DHT22;61314;53.444;9.902;2023-02-23T04:01:03;6.60;99.90
3998;DHT22;61314;53.444;9.902;2023-02-23T04:03:50;6.70;99.90
3998;DHT22;61314;53.444;9.902;2023-02-23T04:06:40;6.60;99.90
3998;DHT22;61314;53.444;9.902;2023-02-23T04:09:27;6.60;99.90
3998;DHT22;61314;53.444;9.902;2023-02-23T04:12:26;6.60;99.90
3998;DHT22;61314;53.444;9.902;2023-02-23T04:17:51;6.60;99.90
3998;DHT22;61314;53.444;9.902;2023-02-23T04:20:19;6.60;99.90
3998;DHT22;61314;53.444;9.902;2023-02-23T04:22:46;6.60;99.90
3998;DHT22;61314;53.444;9.902;2023-02-23T04:25:14;6.60;99.90
3998;DHT22;61314;53.444;9.902;2023-02-23T04:27:42;6.60;99.90
3998;DHT22;61314;53.444;9.902;2023-02-23T04:30:09;6.60;99.90
3998;DHT22;61314;53.444;9.902;2023-02-23T04:32:37;6.60;99.90
3998;DHT22;61314;53.444;9.902;2023-02-23T04:35:04;6.50;99.90
3998;DHT22;61314;53.444;9.902;2023-02-23T04:37:30;6.60;99.90
3998;DHT22;61314;53.444;9.902;2023-02-23T04:39:57;6.50;99.90
3998;DHT22;61314;53.444;9.902;2023-02-23T04:42:24;6.50;99.90
3998;DHT22;61314;53.444;9.902;2023-02-23T04:44:50;6.50;99.90
3998;DHT22;61314;53.444;9.902;2023-02-23T04:47:17;6.50;99.90
3998;DHT22;61314;53.444;9.902;2023-02-23T04:49:43;6.50;99.90
3998;DHT22;61314;53.444;9.902;2023-02-23T05:14:25;6.50;99.90
3998;DHT22;61314;53.444;9.902;2023-02-23T05:16:52;6.60;99.90
3998;DHT22;61314;53.444;9.902;2023-02-23T05:19:19;6.60;99.90
3998;DHT22;61314;53.444;9.902;2023-02-23T05:21:45;6.60;99.90
3998;DHT22;61314;53.444;9.902;2023-02-23T05:24:12;6.50;99.90
3998;DHT22;61314;53.444;9.902;2023-02-23T05:26:38;6.60;99.90
3998;DHT22;61314;53.444;9.902;2023-02-23T05:29:05;6.60;99.90
3998;DHT22;61314;53.444;9.902;2023-02-23T05:31:33;6.60;99.90
3998;DHT22;61314;53.444;9.902;2023-02-23T05:34:00;6.60;99.90
3998;DHT22;61314;53.444;9.902;2023-02-23T05:36:27;6.50;99.90
3998;DHT22;61314;53.444;9.902;2023-02-23T05:38:54;6.60;99.90
3998;DHT22;61314;53.444;9.902;2023-02-23T05:41:21;6.50;99.90
3998;DHT22;61314;53.444;9.902;2023-02-23T05:43:50;6.60;99.90
3998;DHT22;61314;53.444;9.902;2023-02-23T05:46:20;6.60;99.90
3998;DHT22;61314;53.444;9.902;2023-02-23T05:48:47;6.60;99.90
3998;DHT22;61314;53.444;9.902;2023-02-23T05:51:15;6.60;99.90
3998;DHT22;61314;53.444;9.902;2023-02-23T05:53:44;6.60;99.90
3998;DHT22;61314;53.444;9.902;2023-02-23T05:56:14;6.60;99.90
3998;DHT22;61314;53.444;9.902;2023-02-23T05:58:47;6.60;99.90
3998;DHT22;61314;53.444;9.902;2023-02-23T06:01:14;6.60;99.90
3998;DHT22;61314;53.444;9.902;2023-02-23T06:03:40;6.60;99.90
3998;DHT22;61314;53.444;9.902;2023-02-23T06:06:07;6.60;99.90
3998;DHT22;61314;53.444;9.902;2023-02-23T06:08:34;6.60;99.90
3998;DHT22;61314;53.444;9.902;2023-02-23T06:11:00;6.60;99.90
3998;DHT22;61314;53.444;9.902;2023-02-23T06:13:27;6.60;99.90
3998;DHT22;61314;53.444;9.902;2023-02-23T06:15:54;6.70;99.90
3998;DHT22;61314;53.444;9.902;2023-02-23T06:18:20;6.60;99.90
3998;DHT22;61314;53.444;9.902;2023-02-23T06:20:47;6.70;99.90
3998;DHT22;61314;53.444;9.902;2023-02-23T06:23:14;6.70;99.90
3998;DHT22;61314;53.444;9.902;2023-02-23T06:25:45;6.70;99.90
3998;DHT22;61314;53.444;9.902;2023-02-23T06:28:12;6.70;99.90
3998;DHT22;61314;53.444;9.902;2023-02-23T06:30:39;6.80;99.90
3998;DHT22;61314;53.444;9.902;2023-02-23T06:33:06;6.80;99.90
3998;DHT22;61314;53.444;9.902;2023-02-23T06:35:34;6.80;99.90
3998;DHT22;61314;53.444;9.902;2023-02-23T06:38:01;6.80;99.90
3998;DHT22;61314;53.444;9.902;2023-02-23T06:40:27;6.80;99.90
3998;DHT22;61314;53.444;9.902;2023-02-23T06:42:54;6.80;99.90
3998;DHT22;61314;53.444;9.902;2023-02-23T06:45:21;6.80;99.90
3998;DHT22;61314;53.444;9.902;2023-02-23T06:47:48;6.80;99.90
3998;DHT22;61314;53.444;9.902;2023-02-23T06:50:14;6.80;99.90
3998;DHT22;61314;53.444;9.902;2023-02-23T06:52:41;6.80;99.90
3998;DHT22;61314;53.444;9.902;2023-02-23T06:55:08;6.90;99.90
3998;DHT22;61314;53.444;9.902;2023-02-23T06:57:35;6.90;99.90
3998;DHT22;61314;53.444;9.902;2023-02-23T07:00:02;6.90;99.90
3998;DHT22;61314;53.444;9.902;2023-02-23T07:02:31;6.90;99.90
3998;DHT22;61314;53.444;9.902;2023-02-23T07:04:58;6.90;99.90
3998;DHT22;61314;53.444;9.902;2023-02-23T07:07:25;6.90;99.90
3998;DHT22;61314;53.444;9.902;2023-02-23T07:09:51;6.90;99.90
3998;DHT22;61314;53.444;9.902;2023-02-23T07:12:18;6.90;99.90
3998;DHT22;61314;53.444;9.902;2023-02-23T07:14:45;6.90;99.90
3998;DHT22;61314;53.444;9.902;2023-02-23T07:17:12;6.90;99.90
3998;DHT22;61314;53.444;9.902;2023-02-23T07:19:38;7.00;99.90
3998;DHT22;61314;53.444;9.902;2023-02-23T07:22:05;7.00;99.90
3998;DHT22;61314;53.444;9.902;2023-02-23T07:24:31;7.00;99.90
3998;DHT22;61314;53.444;9.902;2023-02-23T07:26:58;7.00;99.90
3998;DHT22;61314;53.444;9.902;2023-02-23T07:29:25;7.00;99.90
3998;DHT22;61314;53.444;9.902;2023-02-23T07:31:53;7.00;99.90
3998;DHT22;61314;53.444;9.902;2023-02-23T07:34:20;7.00;99.90
3998;DHT22;61314;53.444;9.902;2023-02-23T07:36:47;7.00;99.90
3998;DHT22;61314;53.444;9.902;2023-02-23T07:39:13;7.00;99.90
3998;DHT22;61314;53.444;9.902;2023-02-23T07:41:40;7.00;99.90
3998;DHT22;61314;53.444;9.902;2023-02-23T07:44:09;7.00;99.90
3998;DHT22;61314;53.444;9.902;2023-02-23T07:46:35;7.00;99.90
3998;DHT22;61314;53.444;9.902;2023-02-23T07:49:02;7.10;99.90
3998;DHT22;61314;53.444;9.902;2023-02-23T07:51:29;7.00;99.90
3998;DHT22;61314;53.444;9.902;2023-02-23T07:53:55;7.00;99.90
3998;DHT22;61314;53.444;9.902;2023-02-23T07:56:22;7.00;99.90
3998;DHT22;61314;53.444;9.902;2023-02-23T07:58:48;7.10;99.90
3998;DHT22;61314;53.444;9.902;2023-02-23T08:01:15;7.00;99.90
3998;DHT22;61314;53.444;9.902;2023-02-23T08:03:42;7.10;99.90
3998;DHT22;61314;53.444;9.902;2023-02-23T08:06:18;7.10;99.90
3998;DHT22;61314;53.444;9.902;2023-02-23T08:08:54;7.10;99.90
3998;DHT22;61314;53.444;9.902;2023-02-23T08:11:21;7.30;99.90
3998;DHT22;61314;53.444;9.902;2023-02-23T08:13:47;7.10;99.90
3998;DHT22;61314;53.444;9.902;2023-02-23T08:16:14;7.10;99.90
3998;DHT22;61314;53.444;9.902;2023-02-23T08:18:43;7.20;99.90
3998;DHT22;61314;53.444;9.902;2023-02-23T08:21:14;7.20;99.90
3998;DHT22;61314;53.444;9.902;2023-02-23T08:23:40;7.30;99.90
3998;DHT22;61314;53.444;9.902;2023-02-23T08:26:09;7.30;99.90
3998;DHT22;61314;53.444;9.902;2023-02-23T08:28:44;7.10;99.90
3998;DHT22;61314;53.444;9.902;2023-02-23T08:31:14;7.10;99.90
3998;DHT22;61314;53.444;9.902;2023-02-23T08:33:41;7.20;99.90
3998;DHT22;61314;53.444;9.902;2023-02-23T08:36:08;7.20;99.90
3998;DHT22;61314;53.444;9.902;2023-02-23T08:38:35;7.20;99.90
3998;DHT22;61314;53.444;9.902;2023-02-23T08:41:03;7.20;99.90
3998;DHT22;61314;53.444;9.902;2023-02-23T08:43:30;7.30;99.90
3998;DHT22;61314;53.444;9.902;2023-02-23T08:45:57;7.20;99.90
3998;DHT22;61314;53.444;9.902;2023-02-23T08:48:24;7.20;99.90
3998;DHT22;61314;53.444;9.902;2023-02-23T08:50:55;7.20;99.90
3998;DHT22;61314;53.444;9.902;2023-02-23T08:53:22;7.20;99.90
3998;DHT22;61314;53.444;9.902;2023-02-23T08:56:02;7.20;99.90
3998;DHT22;61314;53.444;9.902;2023-02-23T08:58:30;7.20;99.90
3998;DHT22;61314;53.444;9.902;2023-02-23T09:00:57;7.20;99.90
3998;DHT22;61314;53.444;9.902;2023-02-23T09:03:25;7.20;99.90
3998;DHT22;61314;53.444;9.902;2023-02-23T09:05:54;7.20;99.90
3998;DHT22;61314;53.444;9.902;2023-02-23T09:08:21;7.20;99.90
3998;DHT22;61314;53.444;9.902;2023-02-23T09:10:48;7.20;99.90
3998;DHT22;61314;53.444;9.902;2023-02-23T09:13:15;7.30;99.90
3998;DHT22;61314;53.444;9.902;2023-02-23T09:15:42;7.20;99.90
3998;DHT22;61314;53.444;9.902;2023-02-23T09:18:11;7.30;99.90
3998;DHT22;61314;53.444;9.902;2023-02-23T09:20:41;7.30;99.90
3998;DHT22;61314;53.444;9.902;2023-02-23T09:23:09;7.20;99.90
3998;DHT22;61314;53.444;9.902;2023-02-23T09:25:42;7.30;99.90
3998;DHT22;61314;53.444;9.902;2023-02-23T09:28:14;7.30;99.90
3998;DHT22;61314;53.444;9.902;2023-02-23T09:30:42;7.30;99.90
3998;DHT22;61314;53.444;9.902;2023-02-23T09:33:08;7.30;99.90
3998;DHT22;61314;53.444;9.902;2023-02-23T09:35:36;7.30;99.90
3998;DHT22;61314;53.444;9.902;2023-02-23T09:38:04;7.30;99.90
3998;DHT22;61314;53.444;9.902;2023-02-23T09:40:47;7.30;99.90
3998;DHT22;61314;53.444;9.902;2023-02-23T09:43:23;7.40;99.90
3998;DHT22;61314;53.444;9.902;2023-02-23T09:48:29;7.30;99.90
3998;DHT22;61314;53.444;9.902;2023-02-23T09:50:57;7.30;99.90
3998;DHT22;61314;53.444;9.902;2023-02-23T09:53:41;7.30;99.90
3998;DHT22;61314;53.444;9.902;2023-02-23T09:56:14;7.30;99.90
3998;DHT22;61314;53.444;9.902;2023-02-23T09:58:42;7.30;99.90
3998;DHT22;61314;53.444;9.902;2023-02-23T10:04:26;7.40;99.90
3998;DHT22;61314;53.444;9.902;2023-02-23T10:07:06;7.30;99.90
3998;DHT22;61314;53.444;9.902;2023-02-23T10:09:54;7.40;99.90
3998;DHT22;61314;53.444;9.902;2023-02-23T10:12:41;7.30;99.90
3998;DHT22;61314;53.444;9.902;2023-02-23T10:15:22;7.30;99.90
3998;DHT22;61314;53.444;9.902;2023-02-23T10:18:17;7.30;99.90
3998;DHT22;61314;53.444;9.902;2023-02-23T10:21:15;7.30;99.90
3998;DHT22;61314;53.444;9.902;2023-02-23T10:23:52;7.30;99.90
3998;DHT22;61314;53.444;9.902;2023-02-23T10:26:23;7.20;99.90
3998;DHT22;61314;53.444;9.902;2023-02-23T10:28:53;7.30;99.90
3998;DHT22;61314;53.444;9.902;2023-02-23T10:31:33;7.30;99.90
3998;DHT22;61314;53.444;9.902;2023-02-23T10:34:08;7.30;99.90
3998;DHT22;61314;53.444;9.902;2023-02-23T10:36:40;7.20;99.90
3998;DHT22;61314;53.444;9.902;2023-02-23T10:39:11;7.30;99.90
3998;DHT22;61314;53.444;9.902;2023-02-23T10:41:40;7.30;99.90
3998;DHT22;61314;53.444;9.902;2023-02-23T10:44:21;7.30;99.90
3998;DHT22;61314;53.444;9.902;2023-02-23T10:47:00;7.20;99.90
3998;DHT22;61314;53.444;9.902;2023-02-23T10:49:46;7.30;99.90
3998;DHT22;61314;53.444;9.902;2023-02-23T10:52:16;7.30;99.90
3998;DHT22;61314;53.444;9.902;2023-02-23T10:54:47;7.20;99.90
3998;DHT22;61314;53.444;9.902;2023-02-23T10:57:21;7.30;99.90
3998;DHT22;61314;53.444;9.902;2023-02-23T11:00:04;7.20;99.90
3998;DHT22;61314;53.444;9.902;2023-02-23T11:02:32;7.30;99.90
3998;DHT22;61314;53.444;9.902;2023-02-23T11:05:00;7.30;99.90
3998;DHT22;61314;53.444;9.902;2023-02-23T11:07:30;7.30;99.90
3998;DHT22;61314;53.444;9.902;2023-02-23T11:10:25;7.30;99.90
3998;DHT22;61314;53.444;9.902;2023-02-23T11:12:52;7.30;99.90
3998;DHT22;61314;53.444;9.902;2023-02-23T11:15:28;7.30;99.90
3998;DHT22;61314;53.444;9.902;2023-02-23T11:18:23;7.30;99.90
3998;DHT22;61314;53.444;9.902;2023-02-23T11:20:50;7.30;99.90
3998;DHT22;61314;53.444;9.902;2023-02-23T11:26:01;7.20;99.90
3998;DHT22;61314;53.444;9.902;2023-02-23T11:29:29;7.40;99.90
3998;DHT22;61314;53.444;9.902;2023-02-23T11:32:00;7.30;99.90
3998;DHT22;61314;53.444;9.902;2023-02-23T11:34:36;7.20;99.90
3998;DHT22;61314;53.444;9.902;2023-02-23T11:39:55;7.30;99.90
3998;DHT22;61314;53.444;9.902;2023-02-23T11:42:24;7.20;99.90
3998;DHT22;61314;53.444;9.902;2023-02-23T11:45:16;7.20;99.90
3998;DHT22;61314;53.444;9.902;2023-02-23T11:47:48;7.20;99.90
3998;DHT22;61314;53.444;9.902;2023-02-23T11:50:28;7.20;99.90
3998;DHT22;61314;53.444;9.902;2023-02-23T11:53:16;7.10;99.90
3998;DHT22;61314;53.444;9.902;2023-02-23T11:55:49;7.20;99.90
3998;DHT22;61314;53.444;9.902;2023-02-23T12:01:06;7.10;99.90
3998;DHT22;61314;53.444;9.902;2023-02-23T12:03:43;7.10;99.90
3998;DHT22;61314;53.444;9.902;2023-02-23T12:06:10;7.10;99.90
3998;DHT22;61314;53.444;9.902;2023-02-23T12:08:46;7.10;99.90
3998;DHT22;61314;53.444;9.902;2023-02-23T12:11:19;7.10;99.90
3998;DHT22;61314;53.444;9.902;2023-02-23T12:13:58;7.10;99.90
3998;DHT22;61314;53.444;9.902;2023-02-23T12:16:35;7.20;99.90
3998;DHT22;61314;53.444;9.902;2023-02-23T12:19:26;7.20;99.90
3998;DHT22;61314;53.444;9.902;2023-02-23T12:22:01;7.20;99.90
3998;DHT22;61314;53.444;9.902;2023-02-23T12:27:11;7.20;99.90
3998;DHT22;61314;53.444;9.902;2023-02-23T12:33:03;7.30;99.90
3998;DHT22;61314;53.444;9.902;2023-02-23T12:38:18;7.30;99.90
3998;DHT22;61314;53.444;9.902;2023-02-23T12:41:09;7.30;99.90
3998;DHT22;61314;53.444;9.902;2023-02-23T12:46:21;7.30;99.90
3998;DHT22;61314;53.444;9.902;2023-02-23T12:49:07;7.30;99.90
3998;DHT22;61314;53.444;9.902;2023-02-23T12:51:41;7.30;99.90
3998;DHT22;61314;53.444;9.902;2023-02-23T12:54:11;7.30;99.90
3998;DHT22;61314;53.444;9.902;2023-02-23T12:59:40;7.40;99.90
3998;DHT22;61314;53.444;9.902;2023-02-23T13:02:17;7.40;99.90
3998;DHT22;61314;53.444;9.902;2023-02-23T13:05:08;7.30;99.90
3998;DHT22;61314;53.444;9.902;2023-02-23T13:13:55;7.30;99.90
3998;DHT22;61314;53.444;9.902;2023-02-23T13:16:31;7.30;99.90
3998;DHT22;61314;53.444;9.902;2023-02-23T13:19:34;7.30;99.90
3998;DHT22;61314;53.444;9.902;2023-02-23T13:22:27;7.30;99.90
3998;DHT22;61314;53.444;9.902;2023-02-23T13:24:57;7.30;99.90
3998;DHT22;61314;53.444;9.902;2023-02-23T13:27:33;7.30;99.90
3998;DHT22;61314;53.444;9.902;2023-02-23T13:30:02;7.40;99.90
3998;DHT22;61314;53.444;9.902;2023-02-23T13:32:32;7.40;99.90
3998;DHT22;61314;53.444;9.902;2023-02-23T13:35:00;7.40;99.90
3998;DHT22;61314;53.444;9.902;2023-02-23T13:37:32;7.40;99.90
3998;DHT22;61314;53.444;9.902;2023-02-23T13:43:02;7.40;99.90
3998;DHT22;61314;53.444;9.902;2023-02-23T13:46:00;7.40;99.90
3998;DHT22;61314;53.444;9.902;2023-02-23T13:48:41;7.50;99.90
3998;DHT22;61314;53.444;9.902;2023-02-23T13:54:03;7.60;99.90
3998;DHT22;61314;53.444;9.902;2023-02-23T13:56:34;7.50;99.90
3998;DHT22;61314;53.444;9.902;2023-02-23T13:59:06;7.50;99.90
3998;DHT22;61314;53.444;9.902;2023-02-23T14:01:39;7.40;99.90
3998;DHT22;61314;53.444;9.902;2023-02-23T14:04:22;7.40;99.90
3998;DHT22;61314;53.444;9.902;2023-02-23T14:06:57;7.50;99.90
3998;DHT22;61314;53.444;9.902;2023-02-23T14:09:30;7.50;99.90
3998;DHT22;61314;53.444;9.902;2023-02-23T14:14:48;7.50;99.90
3998;DHT22;61314;53.444;9.902;2023-02-23T14:19:44;7.40;99.90
3998;DHT22;61314;53.444;9.902;2023-02-23T14:22:29;7.40;99.90
3998;DHT22;61314;53.444;9.902;2023-02-23T14:28:20;7.40;99.90
3998;DHT22;61314;53.444;9.902;2023-02-23T14:30:58;7.40;99.90
3998;DHT22;61314;53.444;9.902;2023-02-23T14:41:34;7.40;99.90
3998;DHT22;61314;53.444;9.902;2023-02-23T14:44:17;7.40;99.90
3998;DHT22;61314;53.444;9.902;2023-02-23T14:47:02;7.40;99.90
3998;DHT22;61314;53.444;9.902;2023-02-23T14:49:32;7.40;99.90
3998;DHT22;61314;53.444;9.902;2023-02-23T14:52:11;7.40;99.90
3998;DHT22;61314;53.444;9.902;2023-02-23T14:54:40;7.40;99.90
3998;DHT22;61314;53.444;9.902;2023-02-23T14:57:21;7.40;99.90
3998;DHT22;61314;53.444;9.902;2023-02-23T15:02:38;7.40;99.90
3998;DHT22;61314;53.444;9.902;2023-02-23T15:05:22;7.40;99.90
3998;DHT22;61314;53.444;9.902;2023-02-23T15:07:50;7.40;99.90
3998;DHT22;61314;53.444;9.902;2023-02-23T15:10:23;7.40;99.90
3998;DHT22;61314;53.444;9.902;2023-02-23T15:12:52;7.40;99.90
3998;DHT22;61314;53.444;9.902;2023-02-23T15:15:22;7.40;99.90
3998;DHT22;61314;53.444;9.902;2023-02-23T15:17:52;7.40;99.90
3998;DHT22;61314;53.444;9.902;2023-02-23T15:20:22;7.30;99.90
3998;DHT22;61314;53.444;9.902;2023-02-23T15:22:55;7.40;99.90
3998;DHT22;61314;53.444;9.902;2023-02-23T15:25:38;7.40;99.90
3998;DHT22;61314;53.444;9.902;2023-02-23T15:28:21;7.50;99.90
3998;DHT22;61314;53.444;9.902;2023-02-23T15:30:49;7.40;99.90
3998;DHT22;61314;53.444;9.902;2023-02-23T15:33:18;7.40;99.90
3998;DHT22;61314;53.444;9.902;2023-02-23T15:36:20;7.40;99.90
3998;DHT22;61314;53.444;9.902;2023-02-23T15:38:49;7.40;99.90
3998;DHT22;61314;53.444;9.902;2023-02-23T15:41:27;7.40;99.90
3998;DHT22;61314;53.444;9.902;2023-02-23T15:44:22;7.40;99.90
3998;DHT22;61314;53.444;9.902;2023-02-23T15:46:56;7.40;99.90
3998;DHT22;61314;53.444;9.902;2023-02-23T15:49:32;7.40;99.90
3998;DHT22;61314;53.444;9.902;2023-02-23T15:52:02;7.40;99.90
3998;DHT22;61314;53.444;9.902;2023-02-23T15:54:31;7.40;99.90
3998;DHT22;61314;53.444;9.902;2023-02-23T15:57:06;7.40;99.90
3998;DHT22;61314;53.444;9.902;2023-02-23T15:59:39;7.40;99.90
3998;DHT22;61314;53.444;9.902;2023-02-23T16:02:18;7.40;99.90
3998;DHT22;61314;53.444;9.902;2023-02-23T16:04:46;7.40;99.90
3998;DHT22;61314;53.444;9.902;2023-02-23T16:12:29;7.30;99.90
3998;DHT22;61314;53.444;9.902;2023-02-23T16:15:17;7.30;99.90
3998;DHT22;61314;53.444;9.902;2023-02-23T16:17:51;7.30;99.90
3998;DHT22;61314;53.444;9.902;2023-02-23T16:22:52;7.30;99.90
3998;DHT22;61314;53.444;9.902;2023-02-23T16:25:25;7.30;99.90
3998;DHT22;61314;53.444;9.902;2023-02-23T16:27:58;7.20;99.90
3998;DHT22;61314;53.444;9.902;2023-02-23T16:30:32;7.20;99.90
3998;DHT22;61314;53.444;9.902;2023-02-23T16:33:28;7.20;99.90
3998;DHT22;61314;53.444;9.902;2023-02-23T16:41:18;7.10;99.90
3998;DHT22;61314;53.444;9.902;2023-02-23T16:43:48;7.00;99.90
3998;DHT22;61314;53.444;9.902;2023-02-23T16:46:16;7.00;99.90
3998;DHT22;61314;53.444;9.902;2023-02-23T16:48:43;6.90;99.90
3998;DHT22;61314;53.444;9.902;2023-02-23T16:51:16;6.90;99.90
3998;DHT22;61314;53.444;9.902;2023-02-23T16:53:43;6.90;99.90
3998;DHT22;61314;53.444;9.902;2023-02-23T16:56:16;6.90;99.90
3998;DHT22;61314;53.444;9.902;2023-02-23T16:58:48;6.80;99.90
3998;DHT22;61314;53.444;9.902;2023-02-23T17:01:19;6.80;99.90
3998;DHT22;61314;53.444;9.902;2023-02-23T17:03:46;6.70;99.90
3998;DHT22;61314;53.444;9.902;2023-02-23T17:06:19;6.70;99.90
3998;DHT22;61314;53.444;9.902;2023-02-23T17:08:46;6.70;99.90
3998;DHT22;61314;53.444;9.902;2023-02-23T17:11:24;6.70;99.90
3998;DHT22;61314;53.444;9.902;2023-02-23T17:13:50;6.50;99.90
